Time;durP1;ratioP1;P1;durP2;ratioP2;P2;SDS_P1;SDS_P2;PMS_P1;PMS_P2;Temp;Humidity;BMP_temperature;BMP_pressure;BME280_temperature;BME280_humidity;BME280_pressure;Samples;Min_cycle;Max_cycle;Signal;HPM_P1;HPM_P2
2021/05/01 00:01:03;;;;;;;30.13;19.00;;;5.80;99.90;;;;;;5075938;28;20213;-82
2021/05/01 00:03:28;;;;;;;26.07;17.73;;;5.70;99.90;;;;;;5074921;28;20189;-82
2021/05/01 00:05:54;;;;;;;25.93;18.20;;;5.70;99.90;;;;;;5076765;28;20631;-82
2021/05/01 00:08:21;;;;;;;30.77;19.47;;;5.80;99.90;;;;;;5074921;28;20175;-82
2021/05/01 00:10:47;;;;;;;28.43;18.30;;;5.80;99.90;;;;;;5058228;28;20209;-82
2021/05/01 00:13:13;;;;;;;24.95;18.00;;;6.00;99.90;;;;;;5074880;28;20202;-82
2021/05/01 00:15:39;;;;;;;29.17;19.48;;;5.90;99.90;;;;;;5074714;28;20250;-81
2021/05/01 00:18:05;;;;;;;30.30;20.37;;;6.00;99.90;;;;;;5076152;28;20171;-82
2021/05/01 00:20:31;;;;;;;30.33;19.60;;;5.90;99.90;;;;;;5076442;28;20186;-82
2021/05/01 00:22:57;;;;;;;35.40;22.70;;;6.00;99.90;;;;;;5076426;28;20662;-82
2021/05/01 00:25:22;;;;;;;29.47;19.93;;;6.00;99.90;;;;;;5076233;28;20186;-83
2021/05/01 00:27:48;;;;;;;24.20;19.20;;;6.00;99.90;;;;;;5074638;28;20171;-83
2021/05/01 00:30:14;;;;;;;22.87;18.03;;;6.00;99.90;;;;;;5074547;28;20261;-82
2021/05/01 00:32:40;;;;;;;22.83;18.40;;;5.80;99.90;;;;;;5075879;28;20171;-82
2021/05/01 00:35:06;;;;;;;28.77;17.90;;;5.80;99.90;;;;;;5074855;28;20173;-83
2021/05/01 00:37:31;;;;;;;23.97;17.23;;;5.80;99.90;;;;;;5075550;28;20553;-82
2021/05/01 00:39:57;;;;;;;25.40;17.83;;;5.70;99.90;;;;;;5074557;28;20170;-82
2021/05/01 00:42:23;;;;;;;23.63;17.77;;;5.70;99.90;;;;;;5073825;28;20167;-82
2021/05/01 00:44:48;;;;;;;26.43;18.30;;;5.70;99.90;;;;;;5074394;28;20248;-82
2021/05/01 00:47:14;;;;;;;26.60;17.87;;;5.60;99.90;;;;;;5075333;28;20639;-82
2021/05/01 00:49:40;;;;;;;31.43;20.30;;;5.60;99.90;;;;;;5075864;28;20171;-82
2021/05/01 00:52:05;;;;;;;30.10;20.43;;;5.70;99.90;;;;;;5058140;28;20257;-82
2021/05/01 00:54:31;;;;;;;31.37;21.57;;;5.70;99.90;;;;;;5078746;28;20485;-82
2021/05/01 00:56:58;;;;;;;33.23;22.17;;;5.60;99.90;;;;;;5067023;28;20179;-82
2021/05/01 00:59:24;;;;;;;31.53;21.60;;;5.60;99.90;;;;;;5087035;28;20215;-82
2021/05/01 01:01:51;;;;;;;26.30;20.10;;;5.50;99.90;;;;;;5080015;28;20171;-82
2021/05/01 01:04:18;;;;;;;25.67;18.67;;;5.50;99.90;;;;;;5079695;28;20231;-82
2021/05/01 01:06:45;;;;;;;23.47;17.93;;;5.50;99.90;;;;;;5078887;28;20527;-82
2021/05/01 01:09:11;;;;;;;29.77;19.40;;;5.60;99.90;;;;;;5077627;28;20529;-83
2021/05/01 01:11:38;;;;;;;23.20;19.53;;;5.50;99.90;;;;;;5075376;28;20171;-83
2021/05/01 01:14:05;;;;;;;24.00;18.50;;;5.50;99.90;;;;;;5073999;28;20236;-83
2021/05/01 01:16:31;;;;;;;25.87;19.07;;;5.40;99.90;;;;;;5075411;28;20607;-83
2021/05/01 01:18:57;;;;;;;29.63;18.57;;;5.40;99.90;;;;;;5073999;28;20177;-83
2021/05/01 01:21:24;;;;;;;26.43;19.33;;;5.30;99.90;;;;;;5073947;28;20170;-82
2021/05/01 01:23:50;;;;;;;27.40;18.87;;;5.30;99.90;;;;;;5073767;28;20175;-83
2021/05/01 01:26:16;;;;;;;24.03;19.23;;;5.20;99.90;;;;;;5073280;28;20194;-82
2021/05/01 01:28:42;;;;;;;31.60;20.63;;;5.30;99.90;;;;;;5073465;28;20202;-83
2021/05/01 01:31:07;;;;;;;31.53;19.67;;;5.30;99.90;;;;;;5073517;28;20206;-83
2021/05/01 01:33:34;;;;;;;28.57;19.27;;;5.20;99.90;;;;;;5074958;28;20163;-83
2021/05/01 01:35:59;;;;;;;36.17;21.87;;;5.20;99.90;;;;;;5074899;28;20224;-82
2021/05/01 01:38:25;;;;;;;32.83;22.73;;;5.20;99.90;;;;;;5074541;28;20615;-82
2021/05/01 01:40:50;;;;;;;29.13;21.20;;;5.10;99.90;;;;;;5040139;28;20219;-83
2021/05/01 01:43:16;;;;;;;35.97;20.33;;;5.10;99.90;;;;;;5073229;28;20190;-83
2021/05/01 01:45:42;;;;;;;31.93;20.27;;;5.10;99.90;;;;;;5073066;28;20183;-82
2021/05/01 01:48:07;;;;;;;25.07;18.87;;;5.00;99.90;;;;;;5073497;28;20185;-83
2021/05/01 01:50:33;;;;;;;30.17;18.40;;;4.90;99.90;;;;;;5056413;28;20247;-82
2021/05/01 01:52:59;;;;;;;23.40;17.97;;;4.80;99.90;;;;;;5072858;28;20198;-83
2021/05/01 01:55:25;;;;;;;28.47;18.57;;;4.90;99.90;;;;;;5072967;28;20179;-83
2021/05/01 01:57:52;;;;;;;30.73;18.43;;;4.90;99.90;;;;;;5073224;28;20177;-81
2021/05/01 02:00:23;;;;;;;34.20;20.47;;;4.80;99.90;;;;;;5072991;28;20187;-83
2021/05/01 02:02:50;;;;;;;26.50;18.93;;;4.70;99.90;;;;;;5073029;28;20174;-83
2021/05/01 02:05:16;;;;;;;29.43;20.27;;;4.70;99.90;;;;;;5074311;28;20162;-83
2021/05/01 02:07:42;;;;;;;40.03;22.87;;;4.80;99.90;;;;;;5073922;28;20518;-82
2021/05/01 02:10:09;;;;;;;40.40;22.87;;;4.90;99.90;;;;;;5074090;28;20193;-83
2021/05/01 02:12:38;;;;;;;33.87;22.97;;;4.90;99.90;;;;;;5072678;28;20269;-83
2021/05/01 02:15:17;;;;;;;35.57;22.93;;;4.70;99.90;;;;;;5072234;28;20621;-82
2021/05/01 02:17:47;;;;;;;30.27;22.43;;;4.70;99.90;;;;;;5074142;28;20575;-82
2021/05/01 02:20:14;;;;;;;35.47;22.03;;;4.70;99.90;;;;;;5072819;28;20170;-83
2021/05/01 02:22:40;;;;;;;34.97;23.57;;;4.70;99.90;;;;;;5072313;28;20171;-83
2021/05/01 02:25:08;;;;;;;37.03;24.23;;;4.70;99.90;;;;;;5073626;28;20249;-82
2021/05/01 02:27:34;;;;;;;31.77;23.43;;;4.60;99.90;;;;;;5073934;28;20506;-82
2021/05/01 02:30:00;;;;;;;35.63;24.10;;;4.50;99.90;;;;;;5072590;28;20159;-83
2021/05/01 02:32:26;;;;;;;40.27;24.87;;;4.50;99.90;;;;;;5073933;28;20163;-83
2021/05/01 02:34:51;;;;;;;34.70;23.80;;;4.50;99.90;;;;;;5072569;28;20170;-83
2021/05/01 02:37:18;;;;;;;29.73;23.00;;;4.60;99.90;;;;;;5073569;28;20182;-83
2021/05/01 02:39:43;;;;;;;41.40;24.77;;;4.50;99.90;;;;;;5074149;28;20166;-82
2021/05/01 02:42:09;;;;;;;31.23;22.93;;;4.40;99.90;;;;;;5072421;28;20163;-82
2021/05/01 02:44:35;;;;;;;38.00;24.57;;;4.50;99.90;;;;;;5073859;28;20175;-83
2021/05/01 02:47:00;;;;;;;36.63;22.83;;;4.60;99.90;;;;;;5073419;28;20277;-82
2021/05/01 02:49:26;;;;;;;26.07;19.40;;;4.50;99.90;;;;;;5071461;28;20232;-82
2021/05/01 02:51:52;;;;;;;28.07;19.17;;;4.40;99.90;;;;;;5074045;28;20208;-83
2021/05/01 02:54:17;;;;;;;28.03;18.93;;;4.30;99.90;;;;;;5073638;28;20646;-83
2021/05/01 02:56:43;;;;;;;25.70;17.87;;;4.20;99.90;;;;;;5073369;28;20468;-83
2021/05/01 02:59:09;;;;;;;25.43;19.13;;;4.20;99.90;;;;;;5073811;28;20169;-83
2021/05/01 03:01:34;;;;;;;23.07;18.30;;;4.20;99.90;;;;;;5072325;28;20169;-83
2021/05/01 03:04:00;;;;;;;31.33;19.30;;;4.40;99.90;;;;;;5072202;28;20179;-82
2021/05/01 03:06:25;;;;;;;28.17;19.50;;;4.30;99.90;;;;;;5072975;28;20199;-83
2021/05/01 03:08:51;;;;;;;24.63;18.53;;;4.40;99.90;;;;;;5072210;28;20515;-83
2021/05/01 03:11:17;;;;;;;28.97;19.80;;;4.30;99.90;;;;;;5072394;28;20177;-82
2021/05/01 03:13:42;;;;;;;29.10;19.67;;;4.20;99.90;;;;;;5073594;28;20171;-82
2021/05/01 03:16:08;;;;;;;30.73;19.80;;;4.30;99.90;;;;;;5072162;28;20170;-82
2021/05/01 03:18:34;;;;;;;38.67;21.00;;;4.20;99.90;;;;;;5071991;28;20178;-83
2021/05/01 03:20:59;;;;;;;32.03;22.20;;;4.20;99.90;;;;;;5071501;28;20207;-82
2021/05/01 03:23:27;;;;;;;30.93;22.07;;;4.30;99.90;;;;;;5072230;28;20167;-82
2021/05/01 03:25:53;;;;;;;36.73;22.90;;;4.20;99.90;;;;;;5073823;28;20203;-82
2021/05/01 03:28:21;;;;;;;39.57;23.97;;;4.20;99.90;;;;;;5077377;28;20198;-82
2021/05/01 03:30:47;;;;;;;40.13;24.40;;;4.20;99.90;;;;;;5075982;28;20174;-83
2021/05/01 03:33:12;;;;;;;33.33;23.17;;;4.20;99.90;;;;;;5077146;28;20173;-82
2021/05/01 03:35:38;;;;;;;36.67;23.30;;;4.20;99.90;;;;;;5075663;28;20269;-83
2021/05/01 03:38:04;;;;;;;33.80;22.37;;;4.20;99.90;;;;;;5075505;28;20174;-83
2021/05/01 03:40:29;;;;;;;39.63;21.67;;;4.20;99.90;;;;;;5077145;28;20603;-83
2021/05/01 03:42:55;;;;;;;33.70;20.50;;;4.20;99.90;;;;;;5075737;28;20194;-83
2021/05/01 03:45:21;;;;;;;33.80;20.63;;;4.20;99.90;;;;;;5075953;28;20217;-82
2021/05/01 03:47:46;;;;;;;25.07;18.90;;;4.10;99.90;;;;;;5075592;28;20510;-83
2021/05/01 03:50:12;;;;;;;36.20;20.80;;;4.10;99.90;;;;;;5059071;28;20204;-83
2021/05/01 03:52:38;;;;;;;30.23;20.00;;;4.10;99.90;;;;;;5076558;28;20167;-82
2021/05/01 03:55:05;;;;;;;28.23;19.70;;;4.10;99.90;;;;;;5075561;28;20173;-83
2021/05/01 03:57:31;;;;;;;26.57;18.40;;;4.00;99.90;;;;;;5075422;28;20508;-82
2021/05/01 03:59:57;;;;;;;29.67;19.67;;;3.90;99.90;;;;;;5075395;28;20174;-82
2021/05/01 04:02:22;;;;;;;23.90;16.90;;;3.90;99.90;;;;;;5075276;28;20256;-82
2021/05/01 04:04:48;;;;;;;27.20;19.30;;;3.90;99.90;;;;;;5075443;28;20193;-82
2021/05/01 04:07:14;;;;;;;27.37;19.47;;;3.80;99.90;;;;;;5075103;28;20642;-83
2021/05/01 04:09:40;;;;;;;23.73;17.63;;;3.80;99.90;;;;;;5074655;28;20220;-83
2021/05/01 04:12:06;;;;;;;31.47;19.60;;;3.80;99.90;;;;;;5075213;28;20159;-82
2021/05/01 04:14:31;;;;;;;25.60;19.33;;;3.70;99.90;;;;;;5076536;28;20257;-83
2021/05/01 04:16:57;;;;;;;28.53;20.13;;;3.60;99.90;;;;;;5058466;28;20265;-83
2021/05/01 04:19:23;;;;;;;36.57;21.00;;;3.50;99.90;;;;;;5076703;28;20197;-83
2021/05/01 04:21:49;;;;;;;31.50;19.23;;;3.60;99.90;;;;;;5074823;28;20171;-83
2021/05/01 04:24:14;;;;;;;29.60;19.70;;;3.70;99.90;;;;;;5074977;28;20173;-83
2021/05/01 04:26:40;;;;;;;34.37;21.70;;;3.80;99.90;;;;;;5076149;28;20218;-83
2021/05/01 04:29:06;;;;;;;37.80;23.40;;;3.60;99.90;;;;;;5058084;28;20273;-82
2021/05/01 04:31:31;;;;;;;50.67;26.23;;;3.50;99.90;;;;;;5076301;28;20661;-83
2021/05/01 04:33:57;;;;;;;61.13;31.20;;;3.50;99.90;;;;;;5076088;28;20167;-83
2021/05/01 04:36:22;;;;;;;43.03;25.67;;;3.70;99.90;;;;;;5073354;28;20182;-83
2021/05/01 04:38:48;;;;;;;65.70;30.80;;;3.90;99.90;;;;;;5058035;28;20208;-83
2021/05/01 04:41:14;;;;;;;54.33;29.10;;;4.10;99.90;;;;;;5074407;28;20177;-83
2021/05/01 04:43:41;;;;;;;95.20;37.47;;;4.20;99.90;;;;;;5075667;28;20204;-83
2021/05/01 04:46:07;;;;;;;72.77;38.03;;;4.30;99.90;;;;;;5074483;28;20195;-83
2021/05/01 04:48:33;;;;;;;66.57;36.50;;;4.40;99.90;;;;;;5074468;28;20186;-83
2021/05/01 04:50:58;;;;;;;57.37;30.83;;;4.50;99.90;;;;;;5074183;28;20302;-83
2021/05/01 04:53:24;;;;;;;52.60;30.10;;;4.60;99.90;;;;;;5057745;28;20170;-83
2021/05/01 04:55:50;;;;;;;51.33;28.37;;;4.60;99.90;;;;;;5075288;28;20170;-83
2021/05/01 04:58:16;;;;;;;46.97;28.03;;;4.70;99.90;;;;;;5074515;28;20246;-83
2021/05/01 05:00:42;;;;;;;46.40;27.63;;;4.90;99.90;;;;;;5057574;28;20213;-83
2021/05/01 05:03:09;;;;;;;37.23;26.50;;;5.00;99.90;;;;;;5073875;28;20204;-83
2021/05/01 05:05:35;;;;;;;41.30;26.20;;;5.10;99.90;;;;;;5075456;28;20201;-83
2021/05/01 05:08:00;;;;;;;35.47;24.60;;;5.20;99.90;;;;;;5074985;28;20258;-83
2021/05/01 05:10:26;;;;;;;37.57;25.33;;;5.30;99.90;;;;;;5073793;28;20171;-83
2021/05/01 05:12:52;;;;;;;37.67;25.90;;;5.40;99.90;;;;;;5073876;28;20670;-83
2021/05/01 05:15:17;;;;;;;35.43;24.63;;;5.60;99.90;;;;;;5074123;28;20175;-83
2021/05/01 05:17:43;;;;;;;41.50;24.27;;;5.60;99.90;;;;;;5073925;28;20174;-84
2021/05/01 05:20:09;;;;;;;35.33;22.83;;;5.60;99.90;;;;;;5073861;28;20171;-83
2021/05/01 05:22:35;;;;;;;29.83;21.83;;;5.60;99.90;;;;;;5073866;28;20174;-83
2021/05/01 05:25:00;;;;;;;30.37;21.37;;;5.70;99.90;;;;;;5057056;28;20166;-83
2021/05/01 05:27:27;;;;;;;32.93;22.10;;;5.70;99.90;;;;;;5074946;28;20193;-83
2021/05/01 05:29:52;;;;;;;28.40;21.40;;;5.80;99.90;;;;;;5074601;28;20171;-83
2021/05/01 05:32:21;;;;;;;52.73;27.53;;;5.80;99.90;;;;;;5073762;28;20562;-83
2021/05/01 05:34:48;;;;;;;76.63;29.10;;;5.90;99.90;;;;;;5073620;28;20351;-83
2021/05/01 05:37:14;;;;;;;85.40;29.00;;;6.00;99.90;;;;;;5073276;28;20224;-83
2021/05/01 05:39:41;;;;;;;85.90;29.23;;;6.20;99.90;;;;;;5073186;28;20269;-82
2021/05/01 05:42:09;;;;;;;129.57;28.00;;;6.30;99.90;;;;;;5073523;28;20167;-83
2021/05/01 05:44:35;;;;;;;71.00;26.63;;;6.50;99.90;;;;;;5074313;28;20572;-83
2021/05/01 05:47:01;;;;;;;50.97;25.83;;;6.70;99.90;;;;;;5073222;28;20218;-83
2021/05/01 05:49:27;;;;;;;51.63;24.27;;;7.10;99.90;;;;;;5072846;28;20178;-83
2021/05/01 05:51:53;;;;;;;33.95;24.67;;;7.70;99.90;;;;;;5074219;28;20554;-83
2021/05/01 05:54:19;;;;;;;28.92;21.95;;;8.70;99.90;;;;;;5056687;28;20163;-83
2021/05/01 05:56:46;;;;;;;26.20;20.65;;;9.80;99.90;;;;;;5074420;28;20299;-83
2021/05/01 05:59:11;;;;;;;23.58;19.50;;;11.00;99.90;;;;;;5072904;28;20181;-83
2021/05/01 06:01:39;;;;;;;18.40;16.70;;;12.20;99.90;;;;;;5074292;28;20167;-83
2021/05/01 06:04:14;;;;;;;19.52;17.38;;;12.90;99.90;;;;;;5074546;28;20178;-83
2021/05/01 06:06:44;;;;;;;18.58;16.67;;;13.70;99.90;;;;;;5073884;28;20189;-84
2021/05/01 06:09:13;;;;;;;19.17;16.95;;;14.50;99.90;;;;;;5053220;28;20632;-83
2021/05/01 06:11:39;;;;;;;17.17;15.57;;;15.00;99.90;;;;;;5069493;28;20167;-84
2021/05/01 06:14:05;;;;;;;15.27;14.07;;;15.40;99.90;;;;;;5069260;28;20608;-82
2021/05/01 06:16:31;;;;;;;12.80;11.90;;;15.00;99.90;;;;;;5052667;28;20225;-81
2021/05/01 06:18:58;;;;;;;14.05;12.90;;;13.80;99.90;;;;;;5052602;28;20171;-84
2021/05/01 06:21:24;;;;;;;15.18;13.50;;;12.90;99.90;;;;;;5063844;28;20170;-84
2021/05/01 06:23:50;;;;;;;27.13;16.65;;;12.40;99.90;;;;;;5072846;28;20170;-84
2021/05/01 06:26:16;;;;;;;17.67;15.98;;;12.60;99.90;;;;;;5072703;28;20194;-84
2021/05/01 06:28:42;;;;;;;16.88;15.27;;;14.10;99.90;;;;;;5074272;28;20167;-83
2021/05/01 06:31:08;;;;;;;15.43;14.07;;;16.10;99.90;;;;;;5072397;28;20190;-83
2021/05/01 06:33:41;;;;;;;17.00;14.85;;;17.90;99.90;;;;;;5072827;28;20167;-84
2021/05/01 06:36:12;;;;;;;16.10;13.20;;;19.20;99.90;;;;;;5073537;28;20504;-83
2021/05/01 06:38:38;;;;;;;12.93;11.88;;;20.20;99.70;;;;;;5072744;28;20223;-83
2021/05/01 06:41:08;;;;;;;15.13;13.63;;;21.30;97.30;;;;;;5072540;28;20253;-82
2021/05/01 06:44:01;;;;;;;13.18;12.15;;;22.40;95.50;;;;;;5072286;28;20185;-82
2021/05/01 06:46:29;;;;;;;13.63;12.45;;;23.10;93.10;;;;;;5073777;28;20186;-82
2021/05/01 06:48:56;;;;;;;13.88;12.38;;;23.60;92.00;;;;;;5073360;28;20626;-82
2021/05/01 06:51:22;;;;;;;14.07;12.77;;;24.00;91.40;;;;;;5073454;28;20174;-82
2021/05/01 06:53:48;;;;;;;14.38;12.65;;;24.30;90.40;;;;;;5072904;28;20174;-82
2021/05/01 06:56:14;;;;;;;13.88;12.45;;;24.30;88.90;;;;;;5073376;28;20172;-80
2021/05/01 06:58:41;;;;;;;14.38;12.88;;;23.70;90.30;;;;;;5071910;28;20508;-81
2021/05/01 07:01:09;;;;;;;13.25;12.02;;;24.10;90.00;;;;;;5072541;28;20185;-86
2021/05/01 07:03:46;;;;;;;15.32;12.13;;;24.70;89.70;;;;;;5072080;28;20568;-83
2021/05/01 07:06:15;;;;;;;15.02;10.93;;;25.10;89.90;;;;;;5072103;28;20220;-85
2021/05/01 07:08:41;;;;;;;14.75;11.95;;;25.70;86.90;;;;;;5073803;28;20432;-88
2021/05/01 07:11:08;;;;;;;11.30;10.17;;;25.80;85.40;;;;;;5077894;28;20505;-85
2021/05/01 07:13:34;;;;;;;9.43;8.57;;;25.70;86.40;;;;;;5074475;28;20257;-85
2021/05/01 07:16:03;;;;;;;10.98;8.60;;;26.00;85.40;;;;;;5073479;28;20174;-84
2021/05/01 07:18:33;;;;;;;15.85;9.82;;;27.10;84.30;;;;;;5072305;28;20606;-83
2021/05/01 07:21:01;;;;;;;14.90;7.85;;;28.20;80.10;;;;;;5074229;28;20206;-84
2021/05/01 07:23:27;;;;;;;14.93;8.10;;;29.00;79.60;;;;;;5075294;28;20167;-85
2021/05/01 07:25:53;;;;;;;8.45;7.13;;;28.60;77.20;;;;;;5075727;28;20191;-86
2021/05/01 07:28:26;;;;;;;11.20;6.63;;;28.70;76.70;;;;;;5073260;28;20167;-82
2021/05/01 07:30:54;;;;;;;19.92;9.00;;;28.20;76.90;;;;;;5074911;28;20177;-86
2021/05/01 07:33:44;;;;;;;11.32;8.48;;;28.70;76.40;;;;;;5073163;28;20657;-85
2021/05/01 07:36:14;;;;;;;12.20;9.65;;;29.10;74.40;;;;;;5072473;28;20171;-85
2021/05/01 07:38:43;;;;;;;10.43;9.43;;;29.70;73.50;;;;;;5072064;28;20177;-85
2021/05/01 07:41:13;;;;;;;12.38;9.38;;;30.10;72.70;;;;;;5072333;28;20194;-85
2021/05/01 07:43:46;;;;;;;10.35;9.15;;;31.00;70.80;;;;;;5056404;28;20191;-86
2021/05/01 07:46:14;;;;;;;11.13;8.73;;;31.20;69.90;;;;;;5060998;28;20195;-85
2021/05/01 07:48:40;;;;;;;12.15;8.88;;;31.50;69.10;;;;;;5052349;28;20651;-85
2021/05/01 07:51:07;;;;;;;10.93;8.30;;;32.10;66.90;;;;;;5053024;28;20183;-85
2021/05/01 07:53:32;;;;;;;16.70;10.50;;;32.80;66.90;;;;;;5035460;28;20225;-87
2021/05/01 07:56:00;;;;;;;12.40;10.45;;;33.80;63.30;;;;;;5052550;28;20175;-88
2021/05/01 07:58:25;;;;;;;10.98;8.23;;;33.70;62.30;;;;;;5053402;28;20159;-87
2021/05/01 08:00:51;;;;;;;10.57;8.23;;;31.90;62.50;;;;;;5053480;28;20222;-83
2021/05/01 08:03:17;;;;;;;9.02;8.25;;;31.00;63.80;;;;;;5055391;28;20219;-83
2021/05/01 08:05:42;;;;;;;12.32;7.45;;;30.00;62.80;;;;;;5070794;28;20541;-83
2021/05/01 08:08:08;;;;;;;10.38;8.18;;;30.50;63.00;;;;;;5072388;28;20209;-83
2021/05/01 08:10:34;;;;;;;10.93;7.30;;;31.40;62.90;;;;;;5057111;28;20603;-84
2021/05/01 08:12:59;;;;;;;8.88;8.07;;;32.00;61.50;;;;;;5077089;28;20178;-85
2021/05/01 08:15:30;;;;;;;9.60;7.40;;;32.00;61.60;;;;;;5085102;28;20174;-84
2021/05/01 08:17:56;;;;;;;18.48;9.48;;;31.10;61.70;;;;;;5070599;28;20168;-83
2021/05/01 08:20:21;;;;;;;14.57;8.27;;;31.00;63.60;;;;;;5085177;28;20521;-84
2021/05/01 08:22:47;;;;;;;10.88;7.18;;;31.30;62.40;;;;;;5077468;28;20535;-82
2021/05/01 08:25:13;;;;;;;11.48;5.93;;;31.50;62.90;;;;;;5077096;28;20193;-83
2021/05/01 08:27:39;;;;;;;11.45;6.82;;;32.60;60.10;;;;;;5077101;28;20217;-85
2021/05/01 08:30:08;;;;;;;9.20;7.05;;;32.90;59.60;;;;;;5088871;28;20600;-84
2021/05/01 08:32:34;;;;;;;17.23;6.90;;;33.20;60.00;;;;;;5079173;28;20170;-84
2021/05/01 08:34:59;;;;;;;10.95;6.40;;;33.50;57.80;;;;;;5089346;28;20170;-84
2021/05/01 08:37:25;;;;;;;10.45;5.78;;;33.40;58.20;;;;;;5080019;28;20578;-84
2021/05/01 08:39:51;;;;;;;8.43;6.70;;;32.60;59.00;;;;;;5056603;28;20170;-84
2021/05/01 08:42:17;;;;;;;9.48;6.75;;;32.10;58.80;;;;;;5075834;28;20198;-82
2021/05/01 08:44:43;;;;;;;7.47;6.28;;;31.60;59.50;;;;;;5075350;28;20202;-80
2021/05/01 08:47:08;;;;;;;10.07;6.88;;;32.40;59.70;;;;;;5076885;28;20206;-81
2021/05/01 08:49:34;;;;;;;11.77;7.10;;;31.30;59.70;;;;;;5086902;28;20174;-79
2021/05/01 08:52:00;;;;;;;10.93;7.55;;;28.10;63.40;;;;;;5076010;28;20171;-80
2021/05/01 08:54:26;;;;;;;10.40;6.57;;;25.70;67.00;;;;;;5066129;28;20174;-80
2021/05/01 08:56:52;;;;;;;9.80;6.97;;;22.80;70.80;;;;;;5064457;28;20171;-80
2021/05/01 08:59:19;;;;;;;13.05;8.05;;;22.60;74.10;;;;;;5072350;28;20220;-79
2021/05/01 09:01:50;;;;;;;9.20;7.18;;;23.60;71.90;;;;;;5067886;28;20624;-81
2021/05/01 09:04:15;;;;;;;8.00;7.22;;;25.60;68.70;;;;;;5072948;28;20213;-81
2021/05/01 09:06:42;;;;;;;10.90;7.00;;;26.10;68.30;;;;;;5054930;28;20245;-81
2021/05/01 09:09:09;;;;;;;10.10;7.90;;;26.60;66.10;;;;;;5058066;28;20179;-79
2021/05/01 09:11:52;;;;;;;16.38;9.70;;;25.20;67.90;;;;;;5071363;28;20626;-83
2021/05/01 09:14:25;;;;;;;19.42;12.35;;;24.40;69.20;;;;;;5062176;28;20174;-85
2021/05/01 09:17:03;;;;;;;6.95;5.68;;;26.20;66.40;;;;;;5074429;28;20171;-81
2021/05/01 09:19:30;;;;;;;6.10;5.50;;;28.50;62.60;;;;;;5071095;28;20166;-80
2021/05/01 09:22:00;;;;;;;7.43;5.40;;;28.50;60.60;;;;;;5072904;28;20224;-79
2021/05/01 09:24:26;;;;;;;6.88;4.93;;;29.30;62.40;;;;;;5061917;28;20163;-79
2021/05/01 09:26:52;;;;;;;8.40;5.10;;;28.10;60.50;;;;;;5061651;28;20652;-80
2021/05/01 09:29:32;;;;;;;11.00;5.35;;;30.00;60.00;;;;;;5061868;28;20241;-80
2021/05/01 09:32:00;;;;;;;6.88;5.50;;;30.50;59.60;;;;;;5063301;28;20198;-79
2021/05/01 09:34:47;;;;;;;9.95;6.30;;;27.80;62.90;;;;;;5040129;28;20172;-82
2021/05/01 09:37:16;;;;;;;10.55;7.25;;;25.20;66.00;;;;;;5056321;28;20224;-80
2021/05/01 09:39:56;;;;;;;10.68;7.63;;;22.50;71.60;;;;;;5067128;28;20258;-81
2021/05/01 09:42:23;;;;;;;10.15;7.35;;;23.20;73.90;;;;;;5071332;28;20170;-81
2021/05/01 09:45:18;;;;;;;11.15;7.53;;;27.00;69.00;;;;;;5072657;28;20170;-82
2021/05/01 09:47:49;;;;;;;9.68;6.55;;;28.70;62.20;;;;;;5064333;28;20194;-81
2021/05/01 09:50:20;;;;;;;9.48;7.10;;;28.10;62.70;;;;;;5089112;28;20167;-80
2021/05/01 09:53:00;;;;;;;12.57;7.93;;;27.70;62.70;;;;;;5073384;28;20552;-80
2021/05/01 09:55:45;;;;;;;8.10;6.70;;;26.00;65.40;;;;;;5066957;28;20491;-81
2021/05/01 09:58:15;;;;;;;6.97;6.28;;;25.70;66.00;;;;;;5074108;28;20159;-79
2021/05/01 10:00:41;;;;;;;7.60;6.80;;;28.60;63.20;;;;;;5060233;28;20696;-79
2021/05/01 10:03:24;;;;;;;8.45;7.03;;;26.30;62.70;;;;;;5084743;28;20281;-80
2021/05/01 10:05:52;;;;;;;14.93;7.50;;;24.00;69.20;;;;;;5061515;28;20281;-80
2021/05/01 10:08:20;;;;;;;10.93;8.13;;;22.50;72.30;;;;;;5057094;28;20174;-80
2021/05/01 10:10:46;;;;;;;11.93;7.75;;;21.40;74.00;;;;;;5073171;28;20170;-80
2021/05/01 10:13:15;;;;;;;9.27;7.00;;;22.70;74.50;;;;;;5056230;28;20553;-79
2021/05/01 10:15:42;;;;;;;8.98;7.03;;;26.20;68.00;;;;;;5089161;28;20198;-79
2021/05/01 10:18:20;;;;;;;7.57;6.72;;;29.10;62.90;;;;;;5061472;28;20186;-79
2021/05/01 10:20:48;;;;;;;6.55;5.95;;;31.30;59.70;;;;;;5073938;28;20173;-79
2021/05/01 10:23:19;;;;;;;15.23;6.32;;;32.10;56.60;;;;;;5068386;28;20216;-84
2021/05/01 10:25:47;;;;;;;8.55;6.03;;;31.30;56.30;;;;;;5055112;28;20661;-80
2021/05/01 10:28:16;;;;;;;6.70;6.10;;;30.00;59.20;;;;;;5064426;28;20175;-82
2021/05/01 10:30:47;;;;;;;6.03;5.50;;;31.80;57.60;;;;;;5072550;28;20182;-82
2021/05/01 10:33:37;;;;;;;6.55;5.85;;;30.40;57.00;;;;;;5074543;28;20173;-88
2021/05/01 10:36:33;;;;;;;6.38;5.50;;;29.50;60.90;;;;;;5065197;28;20645;-85
2021/05/01 10:39:07;;;;;;;5.75;4.95;;;29.70;58.30;;;;;;5072839;28;20261;-87
2021/05/01 10:41:35;;;;;;;6.53;5.93;;;30.70;56.00;;;;;;5071550;28;20196;-83
2021/05/01 10:44:02;;;;;;;9.27;6.97;;;28.20;57.40;;;;;;5072069;28;20198;-82
2021/05/01 10:46:31;;;;;;;6.85;6.22;;;25.60;61.10;;;;;;5069080;28;20190;-86
2021/05/01 10:49:05;;;;;;;6.28;5.68;;;25.10;62.00;;;;;;5081371;28;20178;-86
2021/05/01 10:51:37;;;;;;;6.72;6.10;;;25.50;62.80;;;;;;5072735;28;20306;-85
2021/05/01 10:54:14;;;;;;;9.73;6.85;;;27.70;61.80;;;;;;5066296;28;20182;-82
2021/05/01 10:56:46;;;;;;;6.82;6.15;;;27.20;61.40;;;;;;5053468;28;20634;-84
2021/05/01 10:59:21;;;;;;;7.95;6.80;;;27.50;61.40;;;;;;5070347;28;20177;-83
2021/05/01 11:01:51;;;;;;;7.80;5.82;;;27.00;61.70;;;;;;5072306;28;20178;-85
2021/05/01 11:04:28;;;;;;;6.72;6.10;;;26.30;59.80;;;;;;5073215;28;20170;-86
2021/05/01 11:07:29;;;;;;;8.10;6.72;;;24.00;62.50;;;;;;5067278;28;20709;-87
2021/05/01 11:10:03;;;;;;;7.47;6.72;;;22.10;67.00;;;;;;5063283;28;20172;-86
2021/05/01 11:12:34;;;;;;;7.38;6.65;;;20.70;71.00;;;;;;5065230;28;20575;-84
2021/05/01 11:14:59;;;;;;;7.80;7.07;;;21.80;71.10;;;;;;5066254;28;20643;-88
2021/05/01 11:17:31;;;;;;;7.47;6.78;;;23.70;66.60;;;;;;5070067;28;20193;-80
2021/05/01 11:20:07;;;;;;;5.97;5.38;;;25.10;66.10;;;;;;5073137;28;20634;-79
2021/05/01 11:22:37;;;;;;;6.75;6.25;;;24.40;63.40;;;;;;5052138;28;20173;-80
2021/05/01 11:25:09;;;;;;;6.45;5.85;;;22.10;65.80;;;;;;5085194;28;20176;-80
2021/05/01 11:27:36;;;;;;;7.18;6.05;;;21.40;68.60;;;;;;5052843;28;20233;-79
2021/05/01 11:30:03;;;;;;;7.25;6.28;;;20.60;68.30;;;;;;5066036;28;20175;-81
2021/05/01 11:32:29;;;;;;;6.20;5.70;;;22.20;69.30;;;;;;5051421;28;20225;-80
2021/05/01 11:35:11;;;;;;;6.50;6.00;;;25.20;66.10;;;;;;5072184;28;20183;-79
2021/05/01 11:37:41;;;;;;;7.22;5.40;;;27.70;60.50;;;;;;5057362;28;20417;-80
2021/05/01 11:40:09;;;;;;;9.05;4.88;;;29.30;56.60;;;;;;5071710;28;20178;-80
2021/05/01 11:42:37;;;;;;;10.48;8.70;;;29.70;58.00;;;;;;5064015;28;20176;-80
2021/05/01 11:45:11;;;;;;;8.82;5.60;;;31.00;55.80;;;;;;5063078;28;20274;-81
2021/05/01 11:47:40;;;;;;;9.13;8.43;;;32.10;55.00;;;;;;5073158;28;20202;-81
2021/05/01 11:50:08;;;;;;;6.07;5.50;;;31.80;54.10;;;;;;5065585;28;20202;-80
2021/05/01 11:52:49;;;;;;;9.75;5.30;;;31.90;53.50;;;;;;5076074;28;20532;-80
2021/05/01 11:55:24;;;;;;;34.83;5.03;;;30.60;53.60;;;;;;5076382;28;20714;-80
2021/05/01 11:57:55;;;;;;;7.00;6.05;;;28.60;56.40;;;;;;5055221;28;20175;-80
2021/05/01 12:00:37;;;;;;;11.73;5.60;;;26.50;58.40;;;;;;5071438;28;20178;-80
2021/05/01 12:03:23;;;;;;;6.32;5.72;;;25.10;59.70;;;;;;5075856;28;20251;-80
2021/05/01 12:06:00;;;;;;;12.52;6.72;;;24.50;60.00;;;;;;5058558;28;20236;-80
2021/05/01 12:08:27;;;;;;;6.38;5.65;;;24.60;62.20;;;;;;5068026;28;20189;-80
2021/05/01 12:10:56;;;;;;;7.40;5.32;;;24.10;64.10;;;;;;5057278;28;20181;-79
2021/05/01 12:13:27;;;;;;;5.40;4.90;;;25.70;60.00;;;;;;5076722;28;20192;-79
2021/05/01 12:15:55;;;;;;;10.25;5.45;;;25.60;56.90;;;;;;5067998;28;20178;-80
2021/05/01 12:18:22;;;;;;;4.82;4.43;;;24.60;59.40;;;;;;5055908;28;20214;-79
2021/05/01 12:20:54;;;;;;;7.50;4.50;;;23.50;61.50;;;;;;5061841;28;20179;-79
2021/05/01 12:23:39;;;;;;;7.88;5.40;;;21.90;62.80;;;;;;5076007;28;20224;-79
2021/05/01 12:26:05;;;;;;;5.75;5.25;;;21.10;66.70;;;;;;5070896;28;20205;-78
2021/05/01 12:28:35;;;;;;;6.55;5.93;;;20.70;65.30;;;;;;5071291;28;20515;-79
2021/05/01 12:31:02;;;;;;;6.82;5.03;;;20.30;65.30;;;;;;5074896;28;20181;-78
2021/05/01 12:33:30;;;;;;;5.60;5.10;;;20.20;67.90;;;;;;5056138;28;20163;-79
2021/05/01 12:36:00;;;;;;;6.38;5.80;;;19.60;67.50;;;;;;5069657;28;20662;-79
2021/05/01 12:38:27;;;;;;;11.23;6.70;;;19.30;70.60;;;;;;5076133;28;20488;-79
2021/05/01 12:41:09;;;;;;;8.20;7.07;;;18.60;75.70;;;;;;5060919;28;20176;-79
2021/05/01 12:43:34;;;;;;;8.93;8.00;;;18.10;78.90;;;;;;5070416;28;20182;-80